sensor_id;sensor_type;location;lat;lon;timestamp;P1;durP1;ratioP1;P2;durP2;ratioP2
22030;SDS011;11179;52.106;21.024;2023-01-09T00:01:31;70.30;;;28.13;;
22030;SDS011;11179;52.106;21.024;2023-01-09T00:03:59;67.50;;;30.27;;
22030;SDS011;11179;52.106;21.024;2023-01-09T00:06:25;70.23;;;28.80;;
22030;SDS011;11179;52.106;21.024;2023-01-09T00:08:50;67.63;;;30.00;;
22030;SDS011;11179;52.106;21.024;2023-01-09T00:11:16;64.97;;;28.27;;
22030;SDS011;11179;52.106;21.024;2023-01-09T00:13:41;69.40;;;28.63;;
22030;SDS011;11179;52.106;21.024;2023-01-09T00:16:09;74.73;;;30.50;;
22030;SDS011;11179;52.106;21.024;2023-01-09T00:18:35;66.13;;;28.00;;
22030;SDS011;11179;52.106;21.024;2023-01-09T00:21:02;65.50;;;28.08;;
22030;SDS011;11179;52.106;21.024;2023-01-09T00:23:29;66.67;;;28.10;;
22030;SDS011;11179;52.106;21.024;2023-01-09T00:26:02;61.30;;;26.50;;
22030;SDS011;11179;52.106;21.024;2023-01-09T00:28:28;71.65;;;29.15;;
22030;SDS011;11179;52.106;21.024;2023-01-09T00:30:57;65.53;;;27.70;;
22030;SDS011;11179;52.106;21.024;2023-01-09T00:33:33;68.03;;;29.23;;
22030;SDS011;11179;52.106;21.024;2023-01-09T00:36:00;59.40;;;25.90;;
22030;SDS011;11179;52.106;21.024;2023-01-09T00:38:26;59.30;;;26.33;;
22030;SDS011;11179;52.106;21.024;2023-01-09T00:40:52;65.33;;;27.40;;
22030;SDS011;11179;52.106;21.024;2023-01-09T00:43:19;62.00;;;26.70;;
22030;SDS011;11179;52.106;21.024;2023-01-09T00:45:47;62.27;;;27.80;;
22030;SDS011;11179;52.106;21.024;2023-01-09T00:48:13;59.53;;;25.93;;
22030;SDS011;11179;52.106;21.024;2023-01-09T00:50:48;61.93;;;25.57;;
22030;SDS011;11179;52.106;21.024;2023-01-09T00:53:14;60.47;;;28.20;;
22030;SDS011;11179;52.106;21.024;2023-01-09T00:55:42;61.73;;;27.40;;
22030;SDS011;11179;52.106;21.024;2023-01-09T00:58:08;57.80;;;24.80;;
22030;SDS011;11179;52.106;21.024;2023-01-09T01:00:33;58.83;;;25.70;;
22030;SDS011;11179;52.106;21.024;2023-01-09T01:02:59;53.70;;;24.30;;
22030;SDS011;11179;52.106;21.024;2023-01-09T01:05:24;59.93;;;24.30;;
22030;SDS011;11179;52.106;21.024;2023-01-09T01:08:12;58.28;;;24.73;;
22030;SDS011;11179;52.106;21.024;2023-01-09T01:10:38;61.00;;;26.50;;
22030;SDS011;11179;52.106;21.024;2023-01-09T01:13:04;59.57;;;27.17;;
22030;SDS011;11179;52.106;21.024;2023-01-09T01:15:30;53.07;;;24.80;;
22030;SDS011;11179;52.106;21.024;2023-01-09T01:17:56;58.30;;;27.37;;
22030;SDS011;11179;52.106;21.024;2023-01-09T01:20:21;68.60;;;27.70;;
22030;SDS011;11179;52.106;21.024;2023-01-09T01:22:47;58.17;;;26.77;;
22030;SDS011;11179;52.106;21.024;2023-01-09T01:25:13;65.70;;;26.40;;
22030;SDS011;11179;52.106;21.024;2023-01-09T01:27:41;55.57;;;26.67;;
22030;SDS011;11179;52.106;21.024;2023-01-09T01:30:08;62.07;;;25.00;;
22030;SDS011;11179;52.106;21.024;2023-01-09T01:32:35;62.43;;;27.83;;
22030;SDS011;11179;52.106;21.024;2023-01-09T01:35:00;61.80;;;26.70;;
22030;SDS011;11179;52.106;21.024;2023-01-09T01:37:25;66.10;;;26.77;;
22030;SDS011;11179;52.106;21.024;2023-01-09T01:39:51;65.50;;;25.30;;
22030;SDS011;11179;52.106;21.024;2023-01-09T01:42:17;61.37;;;27.00;;
22030;SDS011;11179;52.106;21.024;2023-01-09T01:50:45;62.43;;;27.77;;
22030;SDS011;11179;52.106;21.024;2023-01-09T01:53:21;62.40;;;26.47;;
22030;SDS011;11179;52.106;21.024;2023-01-09T01:56:05;59.37;;;27.00;;
22030;SDS011;11179;52.106;21.024;2023-01-09T01:58:48;65.17;;;27.53;;
22030;SDS011;11179;52.106;21.024;2023-01-09T02:01:17;58.50;;;26.57;;
22030;SDS011;11179;52.106;21.024;2023-01-09T02:03:43;59.53;;;25.70;;
22030;SDS011;11179;52.106;21.024;2023-01-09T02:06:09;62.47;;;26.97;;
22030;SDS011;11179;52.106;21.024;2023-01-09T02:08:36;58.73;;;27.70;;
22030;SDS011;11179;52.106;21.024;2023-01-09T02:11:02;57.23;;;24.70;;
22030;SDS011;11179;52.106;21.024;2023-01-09T02:13:28;64.27;;;29.23;;
22030;SDS011;11179;52.106;21.024;2023-01-09T02:16:05;56.53;;;26.03;;
22030;SDS011;11179;52.106;21.024;2023-01-09T02:21:45;58.07;;;26.50;;
22030;SDS011;11179;52.106;21.024;2023-01-09T02:27:56;63.47;;;28.50;;
22030;SDS011;11179;52.106;21.024;2023-01-09T02:35:57;57.37;;;27.23;;
22030;SDS011;11179;52.106;21.024;2023-01-09T02:38:28;51.57;;;26.00;;
22030;SDS011;11179;52.106;21.024;2023-01-09T02:41:19;57.78;;;24.55;;
22030;SDS011;11179;52.106;21.024;2023-01-09T02:44:00;62.23;;;27.30;;
22030;SDS011;11179;52.106;21.024;2023-01-09T02:46:46;57.90;;;26.40;;
22030;SDS011;11179;52.106;21.024;2023-01-09T02:49:12;58.50;;;25.27;;
22030;SDS011;11179;52.106;21.024;2023-01-09T02:51:49;58.72;;;25.80;;
22030;SDS011;11179;52.106;21.024;2023-01-09T02:57:13;57.07;;;26.80;;
22030;SDS011;11179;52.106;21.024;2023-01-09T03:05:56;57.40;;;25.30;;
22030;SDS011;11179;52.106;21.024;2023-01-09T03:08:33;59.67;;;26.53;;
22030;SDS011;11179;52.106;21.024;2023-01-09T03:11:07;54.30;;;25.80;;
22030;SDS011;11179;52.106;21.024;2023-01-09T03:13:46;49.33;;;24.20;;
22030;SDS011;11179;52.106;21.024;2023-01-09T03:16:16;61.27;;;25.67;;
22030;SDS011;11179;52.106;21.024;2023-01-09T03:18:46;57.70;;;26.00;;
22030;SDS011;11179;52.106;21.024;2023-01-09T03:21:13;53.60;;;23.60;;
22030;SDS011;11179;52.106;21.024;2023-01-09T03:23:49;47.00;;;23.60;;
22030;SDS011;11179;52.106;21.024;2023-01-09T03:26:19;50.07;;;24.57;;
22030;SDS011;11179;52.106;21.024;2023-01-09T03:28:45;51.33;;;25.50;;
22030;SDS011;11179;52.106;21.024;2023-01-09T03:31:11;50.93;;;22.97;;
22030;SDS011;11179;52.106;21.024;2023-01-09T03:33:37;49.83;;;23.27;;
22030;SDS011;11179;52.106;21.024;2023-01-09T03:36:03;54.43;;;24.37;;
22030;SDS011;11179;52.106;21.024;2023-01-09T03:38:29;49.67;;;22.83;;
22030;SDS011;11179;52.106;21.024;2023-01-09T03:40:54;51.40;;;24.30;;
22030;SDS011;11179;52.106;21.024;2023-01-09T03:43:19;51.40;;;23.80;;
22030;SDS011;11179;52.106;21.024;2023-01-09T03:45:45;50.93;;;23.60;;
22030;SDS011;11179;52.106;21.024;2023-01-09T03:48:10;51.77;;;23.87;;
22030;SDS011;11179;52.106;21.024;2023-01-09T03:50:35;54.07;;;23.73;;
22030;SDS011;11179;52.106;21.024;2023-01-09T03:53:00;53.10;;;25.00;;
22030;SDS011;11179;52.106;21.024;2023-01-09T03:55:26;57.57;;;26.17;;
22030;SDS011;11179;52.106;21.024;2023-01-09T03:57:51;44.43;;;21.40;;
22030;SDS011;11179;52.106;21.024;2023-01-09T04:00:17;53.83;;;25.57;;
22030;SDS011;11179;52.106;21.024;2023-01-09T04:02:43;48.57;;;23.40;;
22030;SDS011;11179;52.106;21.024;2023-01-09T04:05:09;49.03;;;24.13;;
22030;SDS011;11179;52.106;21.024;2023-01-09T04:07:34;52.83;;;23.70;;
22030;SDS011;11179;52.106;21.024;2023-01-09T04:09:59;60.87;;;22.63;;
22030;SDS011;11179;52.106;21.024;2023-01-09T04:12:25;44.63;;;21.70;;
22030;SDS011;11179;52.106;21.024;2023-01-09T04:14:50;60.33;;;25.37;;
22030;SDS011;11179;52.106;21.024;2023-01-09T04:17:15;48.97;;;22.70;;
22030;SDS011;11179;52.106;21.024;2023-01-09T04:19:41;54.53;;;26.23;;
22030;SDS011;11179;52.106;21.024;2023-01-09T04:22:06;54.67;;;24.60;;
22030;SDS011;11179;52.106;21.024;2023-01-09T04:24:32;47.80;;;23.73;;
22030;SDS011;11179;52.106;21.024;2023-01-09T04:26:57;47.60;;;22.40;;
22030;SDS011;11179;52.106;21.024;2023-01-09T04:29:22;57.13;;;23.10;;
22030;SDS011;11179;52.106;21.024;2023-01-09T04:31:48;51.27;;;24.10;;
22030;SDS011;11179;52.106;21.024;2023-01-09T04:34:13;51.60;;;22.10;;
22030;SDS011;11179;52.106;21.024;2023-01-09T04:36:38;50.63;;;23.13;;
22030;SDS011;11179;52.106;21.024;2023-01-09T04:39:04;51.80;;;23.97;;
22030;SDS011;11179;52.106;21.024;2023-01-09T04:41:29;53.37;;;24.73;;
22030;SDS011;11179;52.106;21.024;2023-01-09T04:44:13;51.27;;;23.00;;
22030;SDS011;11179;52.106;21.024;2023-01-09T04:46:38;52.10;;;22.63;;
22030;SDS011;11179;52.106;21.024;2023-01-09T04:49:04;56.43;;;24.67;;
22030;SDS011;11179;52.106;21.024;2023-01-09T04:51:29;53.93;;;24.80;;
22030;SDS011;11179;52.106;21.024;2023-01-09T04:53:54;48.47;;;21.80;;
22030;SDS011;11179;52.106;21.024;2023-01-09T04:56:20;49.23;;;23.40;;
22030;SDS011;11179;52.106;21.024;2023-01-09T04:58:45;49.50;;;22.63;;
22030;SDS011;11179;52.106;21.024;2023-01-09T05:01:10;45.23;;;22.77;;
22030;SDS011;11179;52.106;21.024;2023-01-09T05:03:36;57.13;;;25.23;;
22030;SDS011;11179;52.106;21.024;2023-01-09T05:06:01;49.40;;;22.97;;
22030;SDS011;11179;52.106;21.024;2023-01-09T05:08:27;47.57;;;21.23;;
22030;SDS011;11179;52.106;21.024;2023-01-09T05:10:52;54.57;;;22.30;;
22030;SDS011;11179;52.106;21.024;2023-01-09T05:13:17;51.27;;;23.73;;
22030;SDS011;11179;52.106;21.024;2023-01-09T05:15:42;53.73;;;23.10;;
22030;SDS011;11179;52.106;21.024;2023-01-09T05:18:08;52.43;;;23.73;;
22030;SDS011;11179;52.106;21.024;2023-01-09T05:20:33;52.13;;;24.87;;
22030;SDS011;11179;52.106;21.024;2023-01-09T05:22:58;49.13;;;22.90;;
22030;SDS011;11179;52.106;21.024;2023-01-09T05:25:23;46.57;;;22.17;;
22030;SDS011;11179;52.106;21.024;2023-01-09T05:27:49;41.20;;;20.57;;
22030;SDS011;11179;52.106;21.024;2023-01-09T05:30:14;41.00;;;21.20;;
22030;SDS011;11179;52.106;21.024;2023-01-09T05:32:39;49.30;;;23.50;;
22030;SDS011;11179;52.106;21.024;2023-01-09T05:35:05;44.00;;;20.57;;
22030;SDS011;11179;52.106;21.024;2023-01-09T05:37:30;43.50;;;21.50;;
22030;SDS011;11179;52.106;21.024;2023-01-09T05:39:56;48.53;;;21.00;;
22030;SDS011;11179;52.106;21.024;2023-01-09T05:42:21;47.30;;;21.47;;
22030;SDS011;11179;52.106;21.024;2023-01-09T05:44:46;42.30;;;20.57;;
22030;SDS011;11179;52.106;21.024;2023-01-09T05:47:12;42.27;;;21.90;;
22030;SDS011;11179;52.106;21.024;2023-01-09T05:49:37;48.97;;;21.47;;
22030;SDS011;11179;52.106;21.024;2023-01-09T05:52:02;46.50;;;23.17;;
22030;SDS011;11179;52.106;21.024;2023-01-09T05:54:28;47.13;;;21.43;;
22030;SDS011;11179;52.106;21.024;2023-01-09T05:56:57;50.97;;;21.70;;
22030;SDS011;11179;52.106;21.024;2023-01-09T05:59:23;44.43;;;20.30;;
22030;SDS011;11179;52.106;21.024;2023-01-09T06:01:48;43.00;;;20.83;;
22030;SDS011;11179;52.106;21.024;2023-01-09T06:04:13;40.07;;;20.13;;
22030;SDS011;11179;52.106;21.024;2023-01-09T06:06:38;42.10;;;20.10;;
22030;SDS011;11179;52.106;21.024;2023-01-09T06:09:05;47.75;;;21.60;;
22030;SDS011;11179;52.106;21.024;2023-01-09T06:11:30;47.77;;;21.10;;
22030;SDS011;11179;52.106;21.024;2023-01-09T06:13:58;43.20;;;20.03;;
22030;SDS011;11179;52.106;21.024;2023-01-09T06:16:23;47.90;;;19.77;;
22030;SDS011;11179;52.106;21.024;2023-01-09T06:18:49;43.83;;;20.40;;
22030;SDS011;11179;52.106;21.024;2023-01-09T06:21:14;42.77;;;20.07;;
22030;SDS011;11179;52.106;21.024;2023-01-09T06:23:39;45.70;;;20.83;;
22030;SDS011;11179;52.106;21.024;2023-01-09T06:26:05;50.93;;;20.87;;
22030;SDS011;11179;52.106;21.024;2023-01-09T06:28:30;37.40;;;19.50;;
22030;SDS011;11179;52.106;21.024;2023-01-09T06:30:55;48.80;;;20.73;;
22030;SDS011;11179;52.106;21.024;2023-01-09T06:33:21;40.37;;;19.60;;
22030;SDS011;11179;52.106;21.024;2023-01-09T06:35:46;41.20;;;20.10;;
22030;SDS011;11179;52.106;21.024;2023-01-09T06:38:11;44.03;;;18.43;;
22030;SDS011;11179;52.106;21.024;2023-01-09T06:40:37;41.20;;;19.83;;
22030;SDS011;11179;52.106;21.024;2023-01-09T06:43:02;38.73;;;18.97;;
22030;SDS011;11179;52.106;21.024;2023-01-09T06:45:27;41.63;;;18.90;;
22030;SDS011;11179;52.106;21.024;2023-01-09T06:47:53;40.47;;;19.47;;
22030;SDS011;11179;52.106;21.024;2023-01-09T06:50:18;37.37;;;18.43;;
22030;SDS011;11179;52.106;21.024;2023-01-09T06:52:43;35.57;;;17.33;;
22030;SDS011;11179;52.106;21.024;2023-01-09T06:55:09;34.60;;;18.00;;
22030;SDS011;11179;52.106;21.024;2023-01-09T06:57:34;40.03;;;19.07;;
22030;SDS011;11179;52.106;21.024;2023-01-09T06:59:59;38.50;;;20.03;;
22030;SDS011;11179;52.106;21.024;2023-01-09T07:02:25;39.97;;;20.13;;
22030;SDS011;11179;52.106;21.024;2023-01-09T07:04:50;38.90;;;18.93;;
22030;SDS011;11179;52.106;21.024;2023-01-09T07:07:15;35.47;;;17.77;;
22030;SDS011;11179;52.106;21.024;2023-01-09T07:09:42;39.53;;;18.73;;
22030;SDS011;11179;52.106;21.024;2023-01-09T07:12:07;40.40;;;19.03;;
22030;SDS011;11179;52.106;21.024;2023-01-09T07:14:33;37.70;;;19.13;;
22030;SDS011;11179;52.106;21.024;2023-01-09T07:16:58;40.10;;;19.87;;
22030;SDS011;11179;52.106;21.024;2023-01-09T07:19:23;35.47;;;18.60;;
22030;SDS011;11179;52.106;21.024;2023-01-09T07:21:49;38.07;;;17.40;;
22030;SDS011;11179;52.106;21.024;2023-01-09T07:24:14;42.30;;;19.80;;
22030;SDS011;11179;52.106;21.024;2023-01-09T07:26:39;39.57;;;18.67;;
22030;SDS011;11179;52.106;21.024;2023-01-09T07:29:05;43.60;;;19.60;;
22030;SDS011;11179;52.106;21.024;2023-01-09T07:31:30;38.93;;;19.60;;
22030;SDS011;11179;52.106;21.024;2023-01-09T07:33:55;42.30;;;21.57;;
22030;SDS011;11179;52.106;21.024;2023-01-09T07:36:21;49.97;;;21.57;;
22030;SDS011;11179;52.106;21.024;2023-01-09T07:38:46;42.83;;;20.10;;
22030;SDS011;11179;52.106;21.024;2023-01-09T07:41:11;37.93;;;18.87;;
22030;SDS011;11179;52.106;21.024;2023-01-09T07:43:37;41.27;;;19.87;;
22030;SDS011;11179;52.106;21.024;2023-01-09T07:46:03;37.77;;;19.90;;
22030;SDS011;11179;52.106;21.024;2023-01-09T07:48:28;44.07;;;21.17;;
22030;SDS011;11179;52.106;21.024;2023-01-09T07:50:53;43.60;;;20.47;;
22030;SDS011;11179;52.106;21.024;2023-01-09T07:53:19;43.03;;;19.43;;
22030;SDS011;11179;52.106;21.024;2023-01-09T07:55:44;35.17;;;17.00;;
22030;SDS011;11179;52.106;21.024;2023-01-09T07:58:09;33.90;;;16.47;;
22030;SDS011;11179;52.106;21.024;2023-01-09T08:00:35;38.40;;;18.07;;
22030;SDS011;11179;52.106;21.024;2023-01-09T08:03:00;34.20;;;18.00;;
22030;SDS011;11179;52.106;21.024;2023-01-09T08:05:25;40.43;;;19.10;;
22030;SDS011;11179;52.106;21.024;2023-01-09T08:07:50;44.40;;;19.67;;
22030;SDS011;11179;52.106;21.024;2023-01-09T08:10:16;43.50;;;19.43;;
22030;SDS011;11179;52.106;21.024;2023-01-09T08:12:43;35.07;;;18.20;;
22030;SDS011;11179;52.106;21.024;2023-01-09T08:15:10;32.70;;;16.77;;
22030;SDS011;11179;52.106;21.024;2023-01-09T08:17:35;34.67;;;17.23;;
22030;SDS011;11179;52.106;21.024;2023-01-09T08:20:01;42.40;;;19.20;;
22030;SDS011;11179;52.106;21.024;2023-01-09T08:22:26;32.87;;;16.40;;
22030;SDS011;11179;52.106;21.024;2023-01-09T08:24:52;36.07;;;19.27;;
22030;SDS011;11179;52.106;21.024;2023-01-09T08:27:17;36.27;;;18.03;;
22030;SDS011;11179;52.106;21.024;2023-01-09T08:29:42;35.50;;;17.47;;
22030;SDS011;11179;52.106;21.024;2023-01-09T08:32:07;39.93;;;17.53;;
22030;SDS011;11179;52.106;21.024;2023-01-09T08:34:33;39.43;;;19.27;;
22030;SDS011;11179;52.106;21.024;2023-01-09T08:36:59;33.70;;;18.30;;
22030;SDS011;11179;52.106;21.024;2023-01-09T08:39:25;31.27;;;15.93;;
22030;SDS011;11179;52.106;21.024;2023-01-09T08:41:50;38.30;;;18.97;;
22030;SDS011;11179;52.106;21.024;2023-01-09T08:44:34;37.30;;;18.20;;
22030;SDS011;11179;52.106;21.024;2023-01-09T08:47:18;37.08;;;17.20;;
22030;SDS011;11179;52.106;21.024;2023-01-09T08:49:46;37.70;;;19.20;;
22030;SDS011;11179;52.106;21.024;2023-01-09T08:52:11;37.10;;;17.53;;
22030;SDS011;11179;52.106;21.024;2023-01-09T08:54:37;34.50;;;17.77;;
22030;SDS011;11179;52.106;21.024;2023-01-09T08:57:04;35.80;;;17.07;;
22030;SDS011;11179;52.106;21.024;2023-01-09T08:59:30;37.03;;;17.80;;
22030;SDS011;11179;52.106;21.024;2023-01-09T09:01:55;34.00;;;16.80;;
22030;SDS011;11179;52.106;21.024;2023-01-09T09:04:21;38.10;;;18.47;;
22030;SDS011;11179;52.106;21.024;2023-01-09T09:06:46;38.20;;;18.17;;
22030;SDS011;11179;52.106;21.024;2023-01-09T09:09:11;37.17;;;18.43;;
22030;SDS011;11179;52.106;21.024;2023-01-09T09:11:37;32.97;;;17.27;;
22030;SDS011;11179;52.106;21.024;2023-01-09T09:14:02;38.93;;;17.43;;
22030;SDS011;11179;52.106;21.024;2023-01-09T09:16:51;34.70;;;17.53;;
22030;SDS011;11179;52.106;21.024;2023-01-09T09:19:17;34.50;;;18.17;;
22030;SDS011;11179;52.106;21.024;2023-01-09T09:21:42;36.00;;;18.03;;
22030;SDS011;11179;52.106;21.024;2023-01-09T09:24:07;39.57;;;17.00;;
22030;SDS011;11179;52.106;21.024;2023-01-09T09:26:33;37.80;;;19.60;;
22030;SDS011;11179;52.106;21.024;2023-01-09T09:28:58;37.47;;;18.60;;
22030;SDS011;11179;52.106;21.024;2023-01-09T09:31:24;35.00;;;18.20;;
22030;SDS011;11179;52.106;21.024;2023-01-09T09:33:49;37.03;;;17.93;;
22030;SDS011;11179;52.106;21.024;2023-01-09T09:36:14;38.63;;;17.47;;
22030;SDS011;11179;52.106;21.024;2023-01-09T09:38:40;34.70;;;15.47;;
22030;SDS011;11179;52.106;21.024;2023-01-09T09:41:21;34.67;;;17.30;;
22030;SDS011;11179;52.106;21.024;2023-01-09T09:52:18;34.80;;;16.47;;
22030;SDS011;11179;52.106;21.024;2023-01-09T09:54:57;35.40;;;18.93;;
22030;SDS011;11179;52.106;21.024;2023-01-09T09:57:29;36.07;;;17.47;;
22030;SDS011;11179;52.106;21.024;2023-01-09T10:00:00;34.20;;;16.20;;
22030;SDS011;11179;52.106;21.024;2023-01-09T10:02:29;29.90;;;16.70;;
22030;SDS011;11179;52.106;21.024;2023-01-09T10:05:10;30.03;;;15.73;;
22030;SDS011;11179;52.106;21.024;2023-01-09T10:07:44;33.07;;;16.40;;
22030;SDS011;11179;52.106;21.024;2023-01-09T10:10:21;33.67;;;17.47;;
22030;SDS011;11179;52.106;21.024;2023-01-09T10:12:54;30.90;;;16.83;;
22030;SDS011;11179;52.106;21.024;2023-01-09T10:20:48;32.07;;;16.43;;
22030;SDS011;11179;52.106;21.024;2023-01-09T10:26:11;31.23;;;17.57;;
22030;SDS011;11179;52.106;21.024;2023-01-09T10:34:11;31.87;;;17.57;;
22030;SDS011;11179;52.106;21.024;2023-01-09T10:36:58;30.20;;;15.97;;
22030;SDS011;11179;52.106;21.024;2023-01-09T10:39:30;34.33;;;17.60;;
22030;SDS011;11179;52.106;21.024;2023-01-09T10:42:20;33.70;;;18.30;;
22030;SDS011;11179;52.106;21.024;2023-01-09T10:44:52;31.63;;;16.63;;
22030;SDS011;11179;52.106;21.024;2023-01-09T10:47:27;34.00;;;18.27;;
22030;SDS011;11179;52.106;21.024;2023-01-09T10:49:56;33.73;;;17.23;;
22030;SDS011;11179;52.106;21.024;2023-01-09T10:52:32;37.00;;;19.47;;
22030;SDS011;11179;52.106;21.024;2023-01-09T10:55:02;33.70;;;18.43;;
22030;SDS011;11179;52.106;21.024;2023-01-09T10:57:42;31.83;;;17.43;;
22030;SDS011;11179;52.106;21.024;2023-01-09T11:00:13;38.10;;;20.23;;
22030;SDS011;11179;52.106;21.024;2023-01-09T11:02:41;37.83;;;17.63;;
22030;SDS011;11179;52.106;21.024;2023-01-09T11:05:08;37.07;;;17.97;;
22030;SDS011;11179;52.106;21.024;2023-01-09T11:07:37;41.13;;;20.00;;
22030;SDS011;11179;52.106;21.024;2023-01-09T11:10:07;37.93;;;19.43;;
22030;SDS011;11179;52.106;21.024;2023-01-09T11:12:35;36.27;;;20.10;;
22030;SDS011;11179;52.106;21.024;2023-01-09T11:15:23;40.23;;;21.20;;
22030;SDS011;11179;52.106;21.024;2023-01-09T11:17:53;39.93;;;19.67;;
22030;SDS011;11179;52.106;21.024;2023-01-09T11:22:49;39.53;;;18.43;;
22030;SDS011;11179;52.106;21.024;2023-01-09T11:25:16;44.10;;;20.27;;
22030;SDS011;11179;52.106;21.024;2023-01-09T11:28:00;38.60;;;20.50;;
22030;SDS011;11179;52.106;21.024;2023-01-09T11:30:30;37.67;;;20.00;;
22030;SDS011;11179;52.106;21.024;2023-01-09T11:32:58;41.97;;;20.17;;
22030;SDS011;11179;52.106;21.024;2023-01-09T11:35:31;37.20;;;18.63;;
22030;SDS011;11179;52.106;21.024;2023-01-09T11:40:32;43.93;;;22.30;;
22030;SDS011;11179;52.106;21.024;2023-01-09T11:43:03;48.17;;;22.30;;
22030;SDS011;11179;52.106;21.024;2023-01-09T11:45:39;38.83;;;20.23;;
22030;SDS011;11179;52.106;21.024;2023-01-09T11:48:18;39.03;;;20.53;;
22030;SDS011;11179;52.106;21.024;2023-01-09T11:50:54;45.10;;;22.27;;
22030;SDS011;11179;52.106;21.024;2023-01-09T11:53:21;39.43;;;20.77;;
22030;SDS011;11179;52.106;21.024;2023-01-09T11:55:48;37.13;;;20.67;;
22030;SDS011;11179;52.106;21.024;2023-01-09T11:58:26;38.83;;;20.23;;
22030;SDS011;11179;52.106;21.024;2023-01-09T12:20:26;46.90;;;24.30;;
22030;SDS011;11179;52.106;21.024;2023-01-09T12:34:15;46.57;;;23.63;;
22030;SDS011;11179;52.106;21.024;2023-01-09T12:40:03;45.40;;;21.90;;
22030;SDS011;11179;52.106;21.024;2023-01-09T12:54:15;45.40;;;22.80;;
22030;SDS011;11179;52.106;21.024;2023-01-09T12:56:51;47.73;;;22.47;;
22030;SDS011;11179;52.106;21.024;2023-01-09T12:59:25;39.30;;;21.23;;
22030;SDS011;11179;52.106;21.024;2023-01-09T13:02:12;43.87;;;22.60;;
22030;SDS011;11179;52.106;21.024;2023-01-09T13:04:53;40.83;;;21.43;;
22030;SDS011;11179;52.106;21.024;2023-01-09T13:07:23;36.87;;;20.50;;
22030;SDS011;11179;52.106;21.024;2023-01-09T13:12:47;41.20;;;21.20;;
22030;SDS011;11179;52.106;21.024;2023-01-09T13:18:02;38.30;;;19.77;;
22030;SDS011;11179;52.106;21.024;2023-01-09T13:23:00;38.30;;;22.47;;
22030;SDS011;11179;52.106;21.024;2023-01-09T13:25:41;42.60;;;20.93;;
22030;SDS011;11179;52.106;21.024;2023-01-09T13:28:26;41.80;;;21.00;;
22030;SDS011;11179;52.106;21.024;2023-01-09T13:31:04;42.10;;;20.73;;
22030;SDS011;11179;52.106;21.024;2023-01-09T13:33:42;41.50;;;22.80;;
22030;SDS011;11179;52.106;21.024;2023-01-09T13:36:25;41.93;;;22.27;;
22030;SDS011;11179;52.106;21.024;2023-01-09T13:38:50;44.53;;;22.20;;
22030;SDS011;11179;52.106;21.024;2023-01-09T13:41:18;38.50;;;21.27;;
22030;SDS011;11179;52.106;21.024;2023-01-09T13:44:04;48.03;;;23.23;;
22030;SDS011;11179;52.106;21.024;2023-01-09T13:46:44;41.47;;;22.17;;
22030;SDS011;11179;52.106;21.024;2023-01-09T13:52:05;48.03;;;24.17;;
22030;SDS011;11179;52.106;21.024;2023-01-09T13:59:44;43.03;;;21.17;;
22030;SDS011;11179;52.106;21.024;2023-01-09T14:08:03;40.87;;;22.17;;
22030;SDS011;11179;52.106;21.024;2023-01-09T14:10:36;40.63;;;22.40;;
22030;SDS011;11179;52.106;21.024;2023-01-09T14:15:44;41.07;;;20.97;;
22030;SDS011;11179;52.106;21.024;2023-01-09T14:18:17;41.50;;;21.30;;
22030;SDS011;11179;52.106;21.024;2023-01-09T14:20:55;41.60;;;19.57;;
22030;SDS011;11179;52.106;21.024;2023-01-09T14:23:24;43.30;;;22.13;;
22030;SDS011;11179;52.106;21.024;2023-01-09T14:25:54;43.60;;;21.87;;
22030;SDS011;11179;52.106;21.024;2023-01-09T14:38:22;38.93;;;21.30;;
22030;SDS011;11179;52.106;21.024;2023-01-09T14:40:53;40.63;;;21.27;;
22030;SDS011;11179;52.106;21.024;2023-01-09T14:43:27;36.97;;;21.57;;
22030;SDS011;11179;52.106;21.024;2023-01-09T14:46:01;36.83;;;20.50;;
22030;SDS011;11179;52.106;21.024;2023-01-09T14:48:30;45.23;;;21.70;;
22030;SDS011;11179;52.106;21.024;2023-01-09T14:50:57;43.93;;;22.77;;
22030;SDS011;11179;52.106;21.024;2023-01-09T14:53:25;39.60;;;20.57;;
22030;SDS011;11179;52.106;21.024;2023-01-09T14:55:55;39.67;;;21.00;;
22030;SDS011;11179;52.106;21.024;2023-01-09T14:58:34;35.63;;;20.00;;
22030;SDS011;11179;52.106;21.024;2023-01-09T15:03:38;45.57;;;19.40;;
22030;SDS011;11179;52.106;21.024;2023-01-09T15:06:09;35.43;;;19.63;;
22030;SDS011;11179;52.106;21.024;2023-01-09T15:08:38;40.50;;;20.93;;
22030;SDS011;11179;52.106;21.024;2023-01-09T15:11:09;34.50;;;20.27;;
22030;SDS011;11179;52.106;21.024;2023-01-09T15:13:36;37.43;;;20.33;;
22030;SDS011;11179;52.106;21.024;2023-01-09T15:16:11;37.00;;;20.77;;
22030;SDS011;11179;52.106;21.024;2023-01-09T15:18:45;37.50;;;20.77;;
22030;SDS011;11179;52.106;21.024;2023-01-09T15:21:20;31.07;;;18.57;;
22030;SDS011;11179;52.106;21.024;2023-01-09T15:23:48;37.33;;;19.90;;
22030;SDS011;11179;52.106;21.024;2023-01-09T15:28:49;38.10;;;19.87;;
22030;SDS011;11179;52.106;21.024;2023-01-09T15:31:16;36.37;;;19.53;;
22030;SDS011;11179;52.106;21.024;2023-01-09T15:33:45;37.30;;;19.90;;
22030;SDS011;11179;52.106;21.024;2023-01-09T15:36:29;34.60;;;19.30;;
22030;SDS011;11179;52.106;21.024;2023-01-09T15:38:55;40.10;;;21.70;;
22030;SDS011;11179;52.106;21.024;2023-01-09T15:41:28;37.53;;;18.80;;
22030;SDS011;11179;52.106;21.024;2023-01-09T15:44:15;42.23;;;22.40;;
22030;SDS011;11179;52.106;21.024;2023-01-09T15:46:49;39.00;;;21.67;;
22030;SDS011;11179;52.106;21.024;2023-01-09T15:49:16;42.90;;;22.30;;
22030;SDS011;11179;52.106;21.024;2023-01-09T15:51:43;46.57;;;22.93;;
22030;SDS011;11179;52.106;21.024;2023-01-09T15:54:14;35.50;;;19.13;;
22030;SDS011;11179;52.106;21.024;2023-01-09T15:56:44;38.77;;;20.90;;
22030;SDS011;11179;52.106;21.024;2023-01-09T15:59:23;37.67;;;20.10;;
22030;SDS011;11179;52.106;21.024;2023-01-09T16:01:58;37.33;;;21.27;;
22030;SDS011;11179;52.106;21.024;2023-01-09T16:04:45;38.80;;;20.63;;
22030;SDS011;11179;52.106;21.024;2023-01-09T16:07:17;38.70;;;20.53;;
22030;SDS011;11179;52.106;21.024;2023-01-09T16:09:45;34.70;;;21.67;;
22030;SDS011;11179;52.106;21.024;2023-01-09T16:12:22;41.00;;;22.80;;
22030;SDS011;11179;52.106;21.024;2023-01-09T16:14:56;46.93;;;24.13;;
22030;SDS011;11179;52.106;21.024;2023-01-09T16:17:23;45.47;;;23.13;;
22030;SDS011;11179;52.106;21.024;2023-01-09T16:19:54;42.77;;;21.57;;
22030;SDS011;11179;52.106;21.024;2023-01-09T16:24:52;37.83;;;21.37;;
22030;SDS011;11179;52.106;21.024;2023-01-09T16:29:54;40.97;;;21.30;;
22030;SDS011;11179;52.106;21.024;2023-01-09T16:32:21;38.37;;;20.60;;
22030;SDS011;11179;52.106;21.024;2023-01-09T16:34:50;41.00;;;22.37;;
22030;SDS011;11179;52.106;21.024;2023-01-09T16:37:16;45.97;;;23.43;;
22030;SDS011;11179;52.106;21.024;2023-01-09T16:39:43;42.83;;;22.70;;
22030;SDS011;11179;52.106;21.024;2023-01-09T16:42:46;44.07;;;23.50;;
22030;SDS011;11179;52.106;21.024;2023-01-09T16:47:54;43.70;;;22.73;;